Time;durP1;ratioP1;P1;durP2;ratioP2;P2;SDS_P1;SDS_P2;PMS_P1;PMS_P2;Temp;Humidity;BMP_temperature;BMP_pressure;BME280_temperature;BME280_humidity;BME280_pressure;Samples;Min_cycle;Max_cycle;Signal;HPM_P1;HPM_P2
2022/01/18 00:01:19;;;;;;;36.17;14.95;;;;;;;4.44;100.00;103718.31;5055810;28;20029;-56
2022/01/18 00:03:45;;;;;;;38.22;15.32;;;;;;;4.44;100.00;103719.16;5055243;28;20187;-54
2022/01/18 00:06:10;;;;;;;41.78;14.82;;;;;;;4.42;100.00;103707.56;5054583;28;20033;-53
2022/01/18 00:08:36;;;;;;;36.47;13.45;;;;;;;4.55;100.00;103720.56;5054963;28;20514;-52
2022/01/18 00:11:02;;;;;;;39.90;14.35;;;;;;;4.55;100.00;103716.94;5054698;28;20384;-52
2022/01/18 00:13:38;;;;;;;42.30;14.63;;;;;;;4.56;100.00;103718.66;5055579;28;20488;-56
2022/01/18 00:18:36;;;;;;;34.53;14.63;;;;;;;4.46;100.00;103718.97;5055371;28;20036;-54
2022/01/18 00:23:32;;;;;;;38.30;12.65;;;;;;;4.55;100.00;103731.53;5054944;28;20041;-54
2022/01/18 00:25:58;;;;;;;33.80;12.80;;;;;;;4.60;100.00;103722.72;5055464;28;20037;-55
2022/01/18 00:28:27;;;;;;;36.08;13.27;;;;;;;4.57;100.00;103712.13;5054743;28;20381;-55
2022/01/18 00:31:22;;;;;;;37.03;13.52;;;;;;;4.64;100.00;103727.59;5055607;28;20025;-54
2022/01/18 00:33:59;;;;;;;38.00;14.15;;;;;;;4.64;100.00;103726.75;5055138;28;20037;-54
2022/01/18 00:36:28;;;;;;;37.55;13.95;;;;;;;4.61;100.00;103727.16;5055987;28;20108;-55
2022/01/18 00:38:57;;;;;;;33.92;13.60;;;;;;;4.59;100.00;103731.97;5055485;28;20048;-51
2022/01/18 00:41:25;;;;;;;36.35;14.05;;;;;;;4.49;100.00;103727.66;5055232;28;20033;-52
2022/01/18 00:43:51;;;;;;;34.40;14.00;;;;;;;4.57;100.00;103740.41;5054316;28;20024;-53
2022/01/18 00:46:17;;;;;;;35.72;13.18;;;;;;;4.57;100.00;103739.53;5054668;28;20025;-53
2022/01/18 00:48:43;;;;;;;39.67;13.40;;;;;;;4.58;100.00;103744.81;5054804;28;20125;-53
2022/01/18 00:51:12;;;;;;;39.25;13.52;;;;;;;4.65;100.00;103755.88;5054256;28;20132;-53
2022/01/18 00:53:38;;;;;;;37.17;12.73;;;;;;;4.68;100.00;103750.00;5055321;28;20025;-56
2022/01/18 00:58:33;;;;;;;35.85;14.90;;;;;;;4.71;100.00;103756.97;5054287;28;20443;-53
2022/01/18 01:00:59;;;;;;;35.95;14.02;;;;;;;4.69;100.00;103759.94;5053530;28;20021;-52
2022/01/18 01:03:24;;;;;;;36.90;13.27;;;;;;;4.68;100.00;103753.56;5053923;28;20067;-51
2022/01/18 01:05:49;;;;;;;44.58;14.68;;;;;;;4.64;100.00;103757.78;5054369;28;20021;-49
2022/01/18 01:08:15;;;;;;;40.42;14.88;;;;;;;4.59;100.00;103753.91;5054309;28;20029;-54
2022/01/18 01:10:41;;;;;;;38.72;14.35;;;;;;;4.61;100.00;103757.31;5054729;28;20487;-54
2022/01/18 01:13:07;;;;;;;39.83;15.38;;;;;;;4.56;100.00;103751.53;5054434;28;20116;-52
2022/01/18 01:15:38;;;;;;;38.13;15.00;;;;;;;4.62;100.00;103750.78;5053542;28;20028;-54
2022/01/18 01:41:47;;;;;;;39.97;14.07;;;;;;;4.76;100.00;103719.69;5054215;28;20496;-53
2022/01/18 01:42:16;;;;;;;37.70;14.68;;;;;;;4.81;100.00;103739.19;5053609;28;20043;-54
2022/01/18 01:44:48;;;;;;;37.28;14.23;;;;;;;4.82;100.00;103734.53;5053517;28;20052;-55
2022/01/18 01:47:21;;;;;;;38.80;14.50;;;;;;;4.82;100.00;103735.38;5052922;28;20033;-52
2022/01/18 01:49:50;;;;;;;37.97;13.43;;;;;;;4.87;100.00;103726.53;5053190;28;20074;-52
2022/01/18 01:52:18;;;;;;;37.35;14.00;;;;;;;4.86;100.00;103726.75;5052802;28;20025;-55
2022/01/18 01:54:45;;;;;;;40.95;13.65;;;;;;;4.90;100.00;103725.31;5053637;28;20032;-54
2022/01/18 01:57:11;;;;;;;34.22;13.70;;;;;;;4.92;100.00;103729.56;5053164;28;20396;-55
2022/01/18 01:59:37;;;;;;;41.90;14.55;;;;;;;4.95;100.00;103731.94;5053748;28;20017;-55
2022/01/18 02:02:02;;;;;;;43.55;15.23;;;;;;;4.94;100.00;103732.97;5052897;28;20040;-53
2022/01/18 02:04:29;;;;;;;42.15;15.07;;;;;;;4.93;100.00;103735.88;5052953;28;20020;-54
2022/01/18 02:06:54;;;;;;;32.38;14.77;;;;;;;4.92;100.00;103742.41;5053106;28;20072;-55
2022/01/18 02:09:20;;;;;;;36.78;14.40;;;;;;;4.93;100.00;103749.59;5053500;28;20045;-53
2022/01/18 02:11:46;;;;;;;37.03;14.77;;;;;;;4.91;100.00;103744.31;5052977;28;20112;-55
2022/01/18 02:14:17;;;;;;;33.88;14.05;;;;;;;4.92;100.00;103753.38;5053701;28;20029;-53
2022/01/18 02:22:10;;;;;;;;;;;;;;;4.96;100.00;103746.47;5053227;28;20094;-52
2022/01/18 02:24:36;;;;;;;35.33;13.70;;;;;;;4.92;100.00;103735.06;5053011;28;20322;-54
2022/01/18 02:27:01;;;;;;;35.05;15.20;;;;;;;4.89;100.00;103732.69;5053213;28;20488;-53
2022/01/18 02:29:27;;;;;;;38.35;14.63;;;;;;;4.91;100.00;103736.09;5052953;28;20025;-56
2022/01/18 02:31:54;;;;;;;36.20;14.98;;;;;;;4.89;100.00;103731.84;5052728;28;20496;-52
2022/01/18 02:34:21;;;;;;;36.63;14.25;;;;;;;4.91;100.00;103738.00;5053059;28;20082;-54
2022/01/18 02:36:47;;;;;;;37.15;14.05;;;;;;;4.90;100.00;103744.53;5052817;28;20036;-53
2022/01/18 02:39:17;;;;;;;34.50;15.15;;;;;;;4.86;100.00;103724.88;5053179;28;20033;-55
2022/01/18 02:41:42;;;;;;;33.92;13.50;;;;;;;4.89;100.00;103731.84;5052883;28;20060;-53
2022/01/18 02:44:12;;;;;;;34.28;15.30;;;;;;;4.87;100.00;103734.78;5052532;28;20044;-54
2022/01/18 02:46:39;;;;;;;38.85;14.98;;;;;;;4.88;100.00;103730.16;5052515;28;20032;-55
2022/01/18 02:49:06;;;;;;;44.05;15.25;;;;;;;4.88;100.00;103738.38;5052789;28;20025;-53
2022/01/18 02:51:33;;;;;;;33.45;14.75;;;;;;;4.88;100.00;103725.50;5052108;28;20047;-53
2022/01/18 02:54:01;;;;;;;36.85;16.08;;;;;;;4.84;100.00;103732.44;5052159;28;20104;-53
2022/01/18 02:56:34;;;;;;;37.60;15.38;;;;;;;4.81;100.00;103725.47;5052623;28;20025;-52
2022/01/18 02:59:22;;;;;;;37.63;15.50;;;;;;;4.86;100.00;103737.72;5052441;28;20024;-55
2022/01/18 03:04:42;;;;;;;;;;;;;;;4.93;100.00;103727.66;5052229;28;20043;-54
2022/01/18 03:07:07;;;;;;;36.63;15.55;;;;;;;4.88;100.00;103731.00;5053027;28;19908;-52
2022/01/18 03:09:33;;;;;;;36.83;15.32;;;;;;;4.87;100.00;103725.72;5051947;28;20113;-54
2022/01/18 03:11:58;;;;;;;38.72;16.00;;;;;;;4.86;100.00;103733.09;5051592;28;20017;-53
2022/01/18 03:14:23;;;;;;;37.03;16.52;;;;;;;4.88;100.00;103733.72;5051115;28;20025;-54
2022/01/18 03:16:49;;;;;;;37.70;17.27;;;;;;;4.88;100.00;103736.47;5051708;28;20128;-51
2022/01/18 03:19:14;;;;;;;46.58;17.60;;;;;;;4.88;100.00;103743.88;5051664;28;20025;-54
2022/01/18 03:21:40;;;;;;;39.22;17.23;;;;;;;4.83;100.00;103739.81;5051735;28;20071;-53
2022/01/18 03:24:20;;;;;;;42.60;17.05;;;;;;;4.84;100.00;103741.50;5052421;28;20403;-54
2022/01/18 03:29:29;;;;;;;;;;;;;;;4.89;100.00;103735.44;5056519;28;20131;-53
2022/01/18 03:31:55;;;;;;;39.37;17.90;;;;;;;4.83;100.00;103742.56;5055929;28;20007;-52
2022/01/18 03:34:20;;;;;;;41.50;17.85;;;;;;;4.84;100.00;103736.03;5056472;28;20266;-54
2022/01/18 03:36:46;;;;;;;38.97;18.02;;;;;;;4.88;100.00;103746.63;5056064;28;20037;-54
2022/01/18 03:39:12;;;;;;;41.22;19.10;;;;;;;4.86;100.00;103745.94;5055233;28;20025;-56
2022/01/18 03:41:37;;;;;;;41.08;18.17;;;;;;;4.88;100.00;103744.69;5055500;28;20037;-52
2022/01/18 03:44:02;;;;;;;40.55;19.02;;;;;;;4.87;100.00;103755.88;5055739;28;20029;-55
2022/01/18 03:46:28;;;;;;;40.50;18.67;;;;;;;4.87;100.00;103744.91;5056209;28;20025;-53
2022/01/18 03:48:54;;;;;;;38.70;17.88;;;;;;;4.88;100.00;103743.88;5055819;28;20025;-55
2022/01/18 03:51:20;;;;;;;38.35;18.17;;;;;;;4.86;100.00;103737.72;5056027;28;20049;-54
2022/01/18 03:53:45;;;;;;;42.72;19.63;;;;;;;4.82;100.00;103751.81;5055623;28;20029;-55
2022/01/18 03:56:11;;;;;;;41.88;19.40;;;;;;;4.76;100.00;103751.78;5055317;28;20032;-54
2022/01/18 03:58:36;;;;;;;41.40;20.80;;;;;;;4.75;100.00;103752.81;5055390;28;20033;-53
2022/01/18 04:01:03;;;;;;;41.00;20.10;;;;;;;4.74;100.00;103757.44;5054984;28;20108;-53
2022/01/18 04:03:28;;;;;;;43.85;19.60;;;;;;;4.76;100.00;103762.75;5055606;28;20025;-54
2022/01/18 04:05:54;;;;;;;42.95;18.60;;;;;;;4.78;100.00;103769.72;5055581;28;20418;-55
2022/01/18 04:08:20;;;;;;;38.90;18.95;;;;;;;4.73;100.00;103755.75;5055763;28;20045;-53
2022/01/18 04:10:46;;;;;;;41.78;18.23;;;;;;;4.81;100.00;103768.47;5054826;28;20090;-52
2022/01/18 04:13:11;;;;;;;38.85;18.30;;;;;;;4.78;100.00;103758.75;5055269;28;20033;-53
2022/01/18 04:15:37;;;;;;;40.80;18.50;;;;;;;4.79;100.00;103774.19;5055229;28;20063;-53
2022/01/18 04:28:36;;;;;;;43.90;18.92;;;;;;;4.78;100.00;103775.22;5055394;28;20120;-53
2022/01/18 04:31:03;;;;;;;42.08;17.50;;;;;;;4.74;100.00;103767.56;5055381;28;20029;-56
2022/01/18 04:33:28;;;;;;;39.17;17.60;;;;;;;4.69;100.00;103769.00;5055529;28;20486;-54
2022/01/18 04:35:53;;;;;;;42.65;18.58;;;;;;;4.64;100.00;103771.47;5055124;28;20072;-52
2022/01/18 04:38:19;;;;;;;43.20;18.50;;;;;;;4.58;100.00;103769.50;5055183;28;20468;-56
2022/01/18 04:40:45;;;;;;;37.60;18.00;;;;;;;4.61;100.00;103771.03;5054259;28;20021;-55
2022/01/18 04:48:40;;;;;;;39.88;19.45;;;;;;;4.65;100.00;103769.56;5054709;28;20040;-52
2022/01/18 04:51:10;;;;;;;41.60;18.33;;;;;;;4.59;100.00;103759.41;5054709;28;20053;-55
2022/01/18 04:53:49;;;;;;;43.58;18.40;;;;;;;4.60;100.00;103774.81;5054541;28;20040;-56
2022/01/18 04:56:17;;;;;;;40.72;17.52;;;;;;;4.69;100.00;103768.16;5053895;28;20021;-56
2022/01/18 04:58:43;;;;;;;40.65;18.77;;;;;;;4.67;100.00;103772.97;5054509;28;20032;-56
2022/01/18 05:01:10;;;;;;;42.30;17.83;;;;;;;4.73;100.00;103780.41;5054658;28;20032;-53
2022/01/18 05:03:36;;;;;;;40.35;17.73;;;;;;;4.71;100.00;103776.19;5054542;28;20017;-56
2022/01/18 05:06:08;;;;;;;42.88;19.50;;;;;;;4.73;100.00;103783.16;5054430;28;20496;-54
2022/01/18 05:08:34;;;;;;;43.42;19.20;;;;;;;4.70;100.00;103794.53;5054408;28;20460;-55
2022/01/18 05:10:59;;;;;;;44.50;19.50;;;;;;;4.67;100.00;103789.44;5054361;28;20025;-55
2022/01/18 05:23:54;;;;;;;42.72;17.88;;;;;;;4.81;100.00;103793.19;5054639;28;20348;-53
2022/01/18 05:26:20;;;;;;;42.72;19.13;;;;;;;4.77;100.00;103789.97;5054589;28;20118;-53
2022/01/18 05:28:45;;;;;;;44.53;19.33;;;;;;;4.72;100.00;103788.84;5053840;28;20507;-52
2022/01/18 05:31:11;;;;;;;45.25;19.75;;;;;;;4.64;100.00;103792.56;5053740;28;20031;-53
2022/01/18 05:33:40;;;;;;;43.25;17.73;;;;;;;4.59;100.00;103792.31;5053528;28;20425;-55
2022/01/18 05:36:05;;;;;;;41.40;18.27;;;;;;;4.51;100.00;103791.38;5053594;28;20025;-53
2022/01/18 05:38:33;;;;;;;44.55;19.20;;;;;;;4.49;100.00;103787.09;5053431;28;20027;-54
2022/01/18 05:40:58;;;;;;;43.35;19.60;;;;;;;4.49;100.00;103782.50;5053740;28;20387;-55
2022/01/18 05:43:23;;;;;;;42.50;18.63;;;;;;;4.46;100.00;103782.03;5053583;28;20029;-53
2022/01/18 05:45:49;;;;;;;51.40;22.60;;;;;;;4.45;100.00;103777.59;5053615;28;20025;-55
2022/01/18 05:48:14;;;;;;;43.78;18.83;;;;;;;4.40;100.00;103785.50;5053727;28;20340;-52
2022/01/18 05:50:39;;;;;;;44.15;19.73;;;;;;;4.41;100.00;103779.88;5052133;28;20396;-55
2022/01/18 05:53:04;;;;;;;41.55;19.38;;;;;;;4.36;100.00;103779.56;5053782;28;20017;-55
2022/01/18 05:55:30;;;;;;;42.25;17.92;;;;;;;4.28;100.00;103783.28;5053230;28;20017;-52
2022/01/18 05:57:55;;;;;;;41.58;20.40;;;;;;;4.27;100.00;103781.59;5052851;28;20028;-52
2022/01/18 06:00:23;;;;;;;44.40;18.17;;;;;;;4.31;100.00;103782.06;5052420;28;20029;-55
2022/01/18 06:08:04;;;;;;;;;;;;;;;4.38;100.00;103774.75;5053954;28;20044;-55
2022/01/18 06:10:29;;;;;;;40.30;18.65;;;;;;;4.28;100.00;103774.19;5053283;28;19912;-55
2022/01/18 06:12:55;;;;;;;41.42;19.10;;;;;;;4.28;100.00;103785.16;5053470;28;20029;-55
2022/01/18 06:15:20;;;;;;;41.92;19.65;;;;;;;4.26;100.00;103781.75;5053196;28;20079;-55
2022/01/18 06:17:46;;;;;;;41.88;18.90;;;;;;;4.23;100.00;103793.97;5053278;28;20070;-55
2022/01/18 06:20:11;;;;;;;42.30;19.10;;;;;;;4.24;100.00;103798.41;5053481;28;20089;-52
2022/01/18 06:22:37;;;;;;;46.72;18.58;;;;;;;4.32;100.00;103787.34;5053266;28;20032;-56
2022/01/18 06:25:07;;;;;;;38.15;17.92;;;;;;;4.36;100.00;103791.41;5053128;28;20033;-53
2022/01/18 06:27:32;;;;;;;42.88;19.45;;;;;;;4.41;100.00;103790.81;5053285;28;20048;-55
2022/01/18 06:29:57;;;;;;;39.80;17.88;;;;;;;4.42;100.00;103788.91;5053284;28;20029;-52
2022/01/18 06:32:24;;;;;;;42.55;19.40;;;;;;;4.45;100.00;103794.88;5053117;28;20029;-54
2022/01/18 06:34:49;;;;;;;41.67;18.52;;;;;;;4.44;100.00;103790.41;5053489;28;20028;-52
2022/01/18 06:37:14;;;;;;;38.05;18.70;;;;;;;4.43;100.00;103787.88;5053314;28;20029;-54
2022/01/18 06:39:40;;;;;;;35.83;17.40;;;;;;;4.43;100.00;103790.63;5052975;28;20376;-56
2022/01/18 06:42:06;;;;;;;44.10;18.77;;;;;;;4.42;100.00;103787.06;5053232;28;20161;-55
2022/01/18 06:44:31;;;;;;;37.42;16.95;;;;;;;4.44;100.00;103778.63;5052790;28;20376;-53
2022/01/18 06:46:56;;;;;;;41.35;17.33;;;;;;;4.47;100.00;103781.00;5051789;28;20029;-55
2022/01/18 06:49:22;;;;;;;42.45;18.27;;;;;;;4.49;100.00;103781.63;5052824;28;20032;-53
2022/01/18 06:51:47;;;;;;;37.53;17.15;;;;;;;4.46;100.00;103782.88;5052857;28;20052;-55
2022/01/18 06:54:16;;;;;;;41.38;18.40;;;;;;;4.46;100.00;103782.88;5053095;28;20104;-56
2022/01/18 06:56:47;;;;;;;43.17;17.85;;;;;;;4.45;100.00;103781.16;5053161;28;20465;-54
2022/01/18 06:59:14;;;;;;;43.83;18.30;;;;;;;4.46;100.00;103782.03;5052944;28;20472;-54
2022/01/18 07:01:39;;;;;;;40.10;18.20;;;;;;;4.43;100.00;103788.75;5052021;28;20064;-55
2022/01/18 07:04:05;;;;;;;41.58;17.70;;;;;;;4.40;100.00;103791.00;5052746;28;20060;-54
2022/01/18 07:06:31;;;;;;;42.35;19.40;;;;;;;4.37;100.00;103789.50;5052352;28;20337;-54
2022/01/18 07:08:57;;;;;;;41.40;17.83;;;;;;;4.36;100.00;103799.63;5052250;28;20033;-53
2022/01/18 07:11:22;;;;;;;45.38;18.88;;;;;;;4.34;100.00;103792.63;5052318;28;20024;-52
2022/01/18 07:13:47;;;;;;;41.47;17.25;;;;;;;4.30;100.00;103800.38;5052696;28;20025;-53
2022/01/18 07:16:13;;;;;;;39.65;16.58;;;;;;;4.30;100.00;103799.53;5052523;28;20025;-53
2022/01/18 07:18:38;;;;;;;38.45;16.30;;;;;;;4.30;100.00;103811.34;5052651;28;20029;-54
2022/01/18 07:21:04;;;;;;;40.17;16.17;;;;;;;4.32;100.00;103808.41;5052545;28;20029;-54
2022/01/18 07:23:29;;;;;;;38.20;16.70;;;;;;;4.37;100.00;103817.78;5053119;28;20017;-52
2022/01/18 07:25:54;;;;;;;37.28;16.00;;;;;;;4.39;100.00;103816.75;5052690;28;20029;-53
2022/01/18 07:28:20;;;;;;;40.10;15.90;;;;;;;4.41;100.00;103820.13;5052791;28;20032;-54
2022/01/18 07:30:46;;;;;;;35.80;15.60;;;;;;;4.45;100.00;103819.53;5052510;28;20314;-51
2022/01/18 07:33:13;;;;;;;39.00;16.65;;;;;;;4.44;100.00;103819.75;5052637;28;20112;-52
2022/01/18 07:35:39;;;;;;;39.80;16.27;;;;;;;4.46;100.00;103818.50;5052555;28;20495;-55
2022/01/18 07:38:05;;;;;;;38.33;16.90;;;;;;;4.47;100.00;103825.69;5052277;28;20032;-51
2022/01/18 07:40:32;;;;;;;39.95;16.77;;;;;;;4.46;100.00;103818.50;5052371;28;20134;-53
2022/01/18 07:43:01;;;;;;;40.15;15.55;;;;;;;4.50;100.00;103822.56;5052396;28;20025;-54
2022/01/18 07:45:27;;;;;;;40.28;15.27;;;;;;;4.50;100.00;103818.97;5052699;28;20108;-52
2022/01/18 07:47:52;;;;;;;37.88;15.60;;;;;;;4.49;100.00;103825.47;5051536;28;20082;-54
2022/01/18 07:50:17;;;;;;;37.97;15.70;;;;;;;4.49;100.00;103829.09;5052142;28;20053;-55
2022/01/18 07:52:43;;;;;;;38.42;15.52;;;;;;;4.50;100.00;103830.81;5051930;28;20020;-51
2022/01/18 07:55:09;;;;;;;38.47;16.75;;;;;;;4.49;100.00;103830.97;5052335;28;20076;-54
2022/01/18 07:57:34;;;;;;;38.78;16.40;;;;;;;4.47;100.00;103827.59;5052313;28;20037;-54
2022/01/18 08:00:00;;;;;;;41.08;16.65;;;;;;;4.47;100.00;103824.84;5052210;28;20052;-55
2022/01/18 08:02:25;;;;;;;35.10;16.73;;;;;;;4.47;100.00;103831.16;5052189;28;20138;-55
2022/01/18 08:04:51;;;;;;;41.03;17.73;;;;;;;4.46;100.00;103826.72;5052313;28;20029;-54
2022/01/18 08:07:16;;;;;;;39.22;17.05;;;;;;;4.48;100.00;103824.66;5052291;28;20473;-54
2022/01/18 08:09:41;;;;;;;40.10;17.10;;;;;;;4.52;100.00;103820.50;5052168;28;20064;-55
2022/01/18 08:12:07;;;;;;;41.35;17.00;;;;;;;4.53;100.00;103829.56;5051772;28;20068;-54
2022/01/18 08:14:33;;;;;;;43.20;17.23;;;;;;;4.54;100.00;103834.00;5053375;28;20108;-55
2022/01/18 08:17:00;;;;;;;41.88;17.23;;;;;;;4.54;100.00;103834.00;5054903;28;20048;-55
2022/01/18 08:19:27;;;;;;;43.30;17.13;;;;;;;4.46;100.00;103814.94;5055411;28;20476;-54
2022/01/18 08:21:53;;;;;;;46.47;18.40;;;;;;;4.53;100.00;103830.41;5055550;28;20039;-55
2022/01/18 08:24:18;;;;;;;36.83;15.95;;;;;;;4.54;100.00;103828.53;5055261;28;20021;-53
2022/01/18 08:26:43;;;;;;;41.92;16.70;;;;;;;4.56;100.00;103828.31;5055587;28;20021;-54
2022/01/18 08:29:12;;;;;;;47.55;17.00;;;;;;;4.55;100.00;103835.72;5055539;28;20028;-53
2022/01/18 08:31:37;;;;;;;41.20;16.38;;;;;;;4.56;100.00;103836.53;5055493;28;20399;-53
2022/01/18 08:34:02;;;;;;;41.33;16.95;;;;;;;4.59;100.00;103833.44;5055231;28;20035;-52
2022/01/18 08:36:27;;;;;;;42.67;17.50;;;;;;;4.61;100.00;103837.66;5054858;28;20028;-53
2022/01/18 08:38:53;;;;;;;41.58;16.52;;;;;;;4.58;100.00;103829.81;5055340;28;20017;-54
2022/01/18 08:41:19;;;;;;;41.75;16.60;;;;;;;4.63;99.98;103837.50;5055286;28;20025;-54
2022/01/18 08:43:44;;;;;;;41.42;15.90;;;;;;;4.62;99.98;103831.16;5055216;28;20025;-55
2022/01/18 08:46:10;;;;;;;40.78;16.98;;;;;;;4.58;99.58;103826.25;5055228;28;20025;-52
2022/01/18 08:48:36;;;;;;;40.15;15.57;;;;;;;4.58;100.00;103824.34;5054848;28;20078;-53
2022/01/18 08:51:02;;;;;;;42.47;16.90;;;;;;;4.62;100.00;103827.56;5054892;28;20049;-54
2022/01/18 08:53:27;;;;;;;37.50;15.65;;;;;;;4.64;100.00;103822.72;5055037;28;20029;-54
2022/01/18 08:55:53;;;;;;;42.28;16.92;;;;;;;4.63;99.88;103829.28;5054617;28;20083;-55
2022/01/18 08:58:18;;;;;;;40.38;16.02;;;;;;;4.64;100.00;103829.06;5055002;28;20035;-54
2022/01/18 09:00:43;;;;;;;40.45;16.02;;;;;;;4.70;100.00;103838.41;5054367;28;20021;-51
2022/01/18 09:03:09;;;;;;;42.95;17.13;;;;;;;4.74;99.81;103836.97;5054805;28;20036;-53
2022/01/18 09:05:37;;;;;;;42.75;15.93;;;;;;;4.77;99.55;103835.75;5054806;28;20021;-54
2022/01/18 09:08:06;;;;;;;47.20;17.55;;;;;;;4.81;99.27;103826.97;5054775;28;20040;-51
2022/01/18 09:10:31;;;;;;;43.17;17.08;;;;;;;4.87;99.34;103839.03;5054584;28;20044;-54
2022/01/18 09:12:57;;;;;;;38.60;16.05;;;;;;;4.90;99.03;103838.63;5054618;28;20376;-53
2022/01/18 09:15:24;;;;;;;38.08;15.63;;;;;;;4.93;98.86;103843.75;5054692;28;20017;-54
2022/01/18 09:17:49;;;;;;;38.03;15.73;;;;;;;4.97;98.53;103849.69;5054883;28;20449;-54
2022/01/18 09:20:15;;;;;;;37.03;14.90;;;;;;;5.02;98.75;103847.19;5054435;28;20464;-55
2022/01/18 09:22:43;;;;;;;35.97;14.75;;;;;;;4.98;98.21;103834.94;5054583;28;20028;-55
2022/01/18 09:25:12;;;;;;;35.60;15.98;;;;;;;5.00;97.93;103833.69;5053799;28;20025;-55
2022/01/18 09:27:37;;;;;;;37.83;15.07;;;;;;;5.08;98.09;103848.31;5054221;28;20032;-54
2022/01/18 09:30:05;;;;;;;31.98;13.98;;;;;;;5.11;98.64;103854.25;5054339;28;20025;-53
2022/01/18 09:32:31;;;;;;;33.88;13.88;;;;;;;5.15;97.98;103852.84;5054044;28;20048;-52
2022/01/18 09:34:56;;;;;;;35.13;13.88;;;;;;;5.19;98.11;103852.47;5054030;28;20465;-55
2022/01/18 09:37:21;;;;;;;38.58;14.48;;;;;;;5.20;98.20;103845.91;5053818;28;20071;-54
2022/01/18 09:39:47;;;;;;;33.58;14.98;;;;;;;5.20;98.27;103849.50;5054182;28;20048;-54
2022/01/18 09:42:13;;;;;;;33.78;13.35;;;;;;;5.26;98.27;103851.47;5053985;28;20079;-54
2022/01/18 09:44:39;;;;;;;33.70;14.43;;;;;;;5.32;98.14;103855.31;5054293;28;20108;-54
2022/01/18 09:47:05;;;;;;;33.55;14.05;;;;;;;5.37;97.53;103854.72;5053569;28;20025;-52
2022/01/18 09:49:34;;;;;;;37.33;14.82;;;;;;;5.41;97.31;103864.28;5052418;28;20052;-53
2022/01/18 09:51:59;;;;;;;34.25;14.07;;;;;;;5.41;97.68;103861.53;5053175;28;20021;-52
2022/01/18 09:54:25;;;;;;;33.65;14.05;;;;;;;5.45;97.38;103865.56;5052600;28;20108;-53
2022/01/18 09:56:51;;;;;;;31.75;14.85;;;;;;;5.48;97.57;103862.44;5052551;28;20017;-55
2022/01/18 09:59:16;;;;;;;32.25;14.20;;;;;;;5.53;97.29;103864.59;5052765;28;20033;-55
2022/01/18 10:01:42;;;;;;;32.97;14.40;;;;;;;5.57;97.34;103869.50;5051497;28;20484;-57
2022/01/18 10:04:20;;;;;;;35.75;13.65;;;;;;;5.59;97.27;103859.16;5053443;28;20033;-53
2022/01/18 10:06:51;;;;;;;32.00;13.90;;;;;;;5.62;96.85;103861.50;5053469;28;20029;-55
2022/01/18 10:09:18;;;;;;;33.35;14.20;;;;;;;5.75;97.09;103870.91;5053867;28;20114;-54
2022/01/18 10:12:08;;;;;;;34.47;14.75;;;;;;;5.84;97.20;103866.13;5053590;28;20021;-55
2022/01/18 10:14:35;;;;;;;32.70;14.13;;;;;;;5.84;97.09;103866.97;5053347;28;20111;-54
2022/01/18 10:17:01;;;;;;;33.58;14.48;;;;;;;5.89;96.97;103867.22;5053536;28;20029;-55
2022/01/18 10:19:47;;;;;;;28.58;13.93;;;;;;;5.92;96.38;103863.22;5053386;28;20037;-55
2022/01/18 10:22:16;;;;;;;30.38;14.48;;;;;;;5.92;96.34;103852.22;5053705;28;20029;-54
2022/01/18 10:24:43;;;;;;;34.15;14.18;;;;;;;5.97;96.32;103866.22;5053382;28;20080;-55
2022/01/18 10:27:09;;;;;;;32.67;13.85;;;;;;;6.01;95.68;103863.94;5053022;28;20025;-54
2022/01/18 10:29:41;;;;;;;32.58;14.60;;;;;;;6.04;95.98;103858.91;5053159;28;20025;-53
2022/01/18 10:32:18;;;;;;;36.92;14.57;;;;;;;6.10;95.97;103868.22;5052725;28;20143;-52
2022/01/18 10:37:25;;;;;;;31.40;14.32;;;;;;;6.20;95.71;103856.88;5052960;28;20036;-55
2022/01/18 10:39:54;;;;;;;29.33;13.43;;;;;;;6.19;95.57;103846.94;5052656;28;20025;-56
2022/01/18 10:42:38;;;;;;;33.63;14.15;;;;;;;6.30;95.46;103857.38;5052890;28;20392;-55
2022/01/18 10:45:21;;;;;;;35.70;14.30;;;;;;;6.37;95.42;103850.00;5053225;28;20036;-54
2022/01/18 10:47:50;;;;;;;36.95;14.25;;;;;;;6.42;95.31;103852.13;5053307;28;20028;-54
2022/01/18 10:50:17;;;;;;;31.52;13.45;;;;;;;6.43;94.54;103853.84;5052679;28;20041;-54
2022/01/18 10:52:43;;;;;;;30.73;14.25;;;;;;;6.49;94.87;103833.75;5052976;28;20040;-55
2022/01/18 10:55:16;;;;;;;35.60;14.45;;;;;;;6.55;95.11;103838.47;5053143;28;20033;-54
2022/01/18 10:57:41;;;;;;;33.35;14.23;;;;;;;6.62;94.60;103840.38;5053210;28;20052;-53
2022/01/18 11:00:10;;;;;;;31.13;14.45;;;;;;;6.59;94.16;103829.78;5053033;28;20475;-52
2022/01/18 11:02:44;;;;;;;33.78;14.57;;;;;;;6.55;94.20;103821.94;5051991;28;20074;-54
2022/01/18 11:05:18;;;;;;;34.47;14.70;;;;;;;6.61;94.41;103830.44;5033021;28;20041;-54
2022/01/18 11:07:45;;;;;;;36.58;15.50;;;;;;;6.57;93.90;103824.50;5032987;28;20171;-55
2022/01/18 11:10:12;;;;;;;33.35;13.73;;;;;;;6.60;93.80;103829.59;5033214;28;20115;-50
2022/01/18 11:13:05;;;;;;;31.83;13.65;;;;;;;6.66;nan;103823.25;5041569;28;20025;-56
2022/01/18 11:15:37;;;;;;;35.97;15.02;;;;;;;6.68;93.52;103812.03;5052400;28;20565;-54
2022/01/18 11:18:07;;;;;;;33.92;13.90;;;;;;;6.84;93.78;103825.44;5052927;28;20124;-55
2022/01/18 11:20:38;;;;;;;34.17;14.02;;;;;;;6.91;91.88;103819.94;5052835;28;20106;-54
2022/01/18 11:23:07;;;;;;;32.60;13.00;;;;;;;6.90;91.15;103820.97;5052488;28;20072;-54
2022/01/18 11:25:36;;;;;;;32.90;12.50;;;;;;;6.91;91.73;103814.41;5052749;28;20029;-54
2022/01/18 11:28:03;;;;;;;28.80;13.30;;;;;;;7.02;91.19;103818.50;5052373;28;20032;-55
2022/01/18 11:30:34;;;;;;;31.08;12.90;;;;;;;6.96;90.43;103814.66;5052708;28;20029;-53
2022/01/18 11:33:05;;;;;;;36.95;13.88;;;;;;;7.08;90.98;103819.56;5052826;28;20052;-55
2022/01/18 11:35:49;;;;;;;34.50;14.10;;;;;;;7.16;89.63;103814.69;5052614;28;20055;-56
2022/01/18 11:38:33;;;;;;;32.50;13.02;;;;;;;7.27;89.99;103810.47;5052881;28;20063;-56
2022/01/18 11:40:59;;;;;;;;;;;;;;;7.39;92.15;103807.06;5052828;28;20063;-54
2022/01/18 11:43:42;;;;;;;35.35;13.25;;;;;;;7.44;90.14;103807.28;5052663;28;19913;-54
2022/01/18 11:46:22;;;;;;;32.37;14.30;;;;;;;7.48;88.48;103803.91;5052727;28;20029;-55
2022/01/18 11:48:57;;;;;;;30.58;13.13;;;;;;;7.44;88.31;103804.53;5052599;28;20275;-54
2022/01/18 11:51:35;;;;;;;30.67;13.85;;;;;;;7.40;87.94;103795.00;5053867;28;20049;-54
2022/01/18 11:54:35;;;;;;;29.10;12.32;;;;;;;7.33;88.13;103787.59;5055578;28;20029;-54
2022/01/18 11:57:04;;;;;;;31.17;12.93;;;;;;;7.39;88.04;103810.69;5055647;28;20025;-56
2022/01/18 11:59:39;;;;;;;32.03;12.93;;;;;;;7.42;88.11;103799.22;5055653;28;20029;-55
2022/01/18 12:02:06;;;;;;;32.03;13.57;;;;;;;7.46;87.96;103808.78;5055951;28;20480;-55
2022/01/18 12:04:38;;;;;;;30.55;12.77;;;;;;;7.53;88.24;103799.66;5055364;28;20025;-55
2022/01/18 12:07:03;;;;;;;27.75;11.98;;;;;;;7.68;87.11;103813.19;5055278;28;20115;-54
2022/01/18 12:09:42;;;;;;;32.03;12.80;;;;;;;7.86;86.95;103807.88;5056110;28;20104;-54
2022/01/18 12:12:40;;;;;;;33.00;12.65;;;;;;;8.04;86.67;103796.19;5056040;28;20392;-55
2022/01/18 12:15:24;;;;;;;30.80;11.98;;;;;;;8.08;84.06;103802.09;5053926;28;20084;-54
2022/01/18 12:17:57;;;;;;;;;;;;;;;8.09;86.14;103790.84;5056359;28;20032;-55
2022/01/18 12:20:37;;;;;;;27.27;11.52;;;;;;;7.99;84.35;103784.94;5054417;28;19950;-53
2022/01/18 12:23:20;;;;;;;29.13;13.05;;;;;;;7.86;85.40;103783.06;5055904;28;20036;-55
2022/01/18 12:25:57;;;;;;;27.08;11.75;;;;;;;7.86;83.57;103790.50;5055864;28;20037;-54
2022/01/18 12:34:30;;;;;;;26.65;11.10;;;;;;;7.81;84.53;103772.69;5055676;28;20111;-55
2022/01/18 12:37:20;;;;;;;27.50;12.18;;;;;;;7.95;84.94;103762.47;5055128;28;20518;-55
2022/01/18 12:40:05;;;;;;;29.13;12.38;;;;;;;7.97;82.41;103770.56;5054907;28;20108;-55